Ziekenhuis Talma Sionsberg Heliport

NL-0003 · Friesland, 荷兰

罗盘
风向 的 风向 的 风向 到 风向 050° 直升机
风: 7 kt, 3 beaufort
0 ft 5.000 10.000 15.000 20.000
Cloud Cloud Cloud Cloud Cloud Cloud Cloud Cloud
OVC 11.000
METAR EHLW 202155Z AUTO 05007KT 360V110 9999 OVC110 14/12 Q1017 BLU

METAR Ziekenhuis Talma Sionsberg Heliport - NL-0003

Ziekenhuis Talma Sionsberg Heliport是,荷兰中的直升机场。 该机场位于纬度53,31964和经度5,99308。 这个机场没有ICAO代码,我们使用NL-0003作为参考。 机场在Amsterdam FIR中。

该航空气象观测是针对Leeuwarden Air Base在2024年6月20日 23:55, 当地时间进行的。

机场观察

风向为050°,速度为7 kt。 风向在360°和110°之间变化。

可见度为10 km 或者更多。

有乌云密布在11.000 ft的高度。 破损或更高的上限为11.000 ft。

温度和风寒是14 °C。 露点为12 °C,相对湿度为88%。 海平面上的气压为1017 hPa (QNH)。

白天

今天,太阳从05:07升起,在22:07降落。 这适用于Ziekenhuis Talma Sionsberg Heliport,世界夏令时可能有所不同。 当地时间与世界标准时间之间的时差为+2 小时。 夏令时目前正在进行中。

公司介绍

我们没有关于这个机场的公司信息。

体会

到Vliegles.nl去找飞行课程,跳伞和其他飞行体验。 浏览页面,了解Ziekenhuis Talma Sionsberg Heliport附近所有可用的活动。 你也可以使用搜索功能来寻找你所在地附近的特定飞行课程、跳伞或其他飞行体验。

乌云

11.000 ft OVC 乌云密布

温度 & 天气

温度 14 °C
露点 12 °C
相对湿度 88%
Kp-index 2 (0-9)

白天

日出
05:09 (4:54)
中午
13:38
日落
22:08

小工具

你想在你的网站上有一个关于Ziekenhuis Talma Sionsberg Heliport的当前航空天气(METAR)的小部件吗?

显示HTML代码
报告变更